sensor_id;sensor_type;location;lat;lon;timestamp;P1;durP1;ratioP1;P2;durP2;ratioP2
3865;SDS011;1948;53.250;10.412;2023-07-13T00:02:24;8.20;;;4.73;;
3865;SDS011;1948;53.250;10.412;2023-07-13T00:04:54;9.60;;;5.20;;
3865;SDS011;1948;53.250;10.412;2023-07-13T00:07:21;13.87;;;4.70;;
3865;SDS011;1948;53.250;10.412;2023-07-13T00:09:52;24.80;;;5.50;;
3865;SDS011;1948;53.250;10.412;2023-07-13T00:12:38;8.77;;;5.70;;
3865;SDS011;1948;53.250;10.412;2023-07-13T00:15:14;6.63;;;5.13;;
3865;SDS011;1948;53.250;10.412;2023-07-13T00:17:49;11.13;;;4.40;;
3865;SDS011;1948;53.250;10.412;2023-07-13T00:20:18;11.03;;;4.93;;
3865;SDS011;1948;53.250;10.412;2023-07-13T00:22:53;16.77;;;5.47;;
3865;SDS011;1948;53.250;10.412;2023-07-13T00:25:24;11.43;;;4.53;;
3865;SDS011;1948;53.250;10.412;2023-07-13T00:27:54;15.63;;;5.33;;
3865;SDS011;1948;53.250;10.412;2023-07-13T00:30:22;17.97;;;4.87;;
3865;SDS011;1948;53.250;10.412;2023-07-13T00:32:52;13.67;;;5.13;;
3865;SDS011;1948;53.250;10.412;2023-07-13T00:35:41;19.43;;;4.63;;
3865;SDS011;1948;53.250;10.412;2023-07-13T00:38:11;14.70;;;4.47;;
3865;SDS011;1948;53.250;10.412;2023-07-13T00:40:38;19.43;;;5.20;;
3865;SDS011;1948;53.250;10.412;2023-07-13T00:43:15;6.77;;;4.77;;
3865;SDS011;1948;53.250;10.412;2023-07-13T00:48:20;13.23;;;5.23;;
3865;SDS011;1948;53.250;10.412;2023-07-13T00:50:55;8.80;;;4.70;;
3865;SDS011;1948;53.250;10.412;2023-07-13T00:53:28;20.50;;;5.53;;
3865;SDS011;1948;53.250;10.412;2023-07-13T00:55:57;12.97;;;5.53;;
3865;SDS011;1948;53.250;10.412;2023-07-13T00:58:28;14.57;;;4.90;;
3865;SDS011;1948;53.250;10.412;2023-07-13T01:00:55;16.53;;;6.00;;
3865;SDS011;1948;53.250;10.412;2023-07-13T01:03:25;15.70;;;5.20;;
3865;SDS011;1948;53.250;10.412;2023-07-13T01:05:55;23.87;;;6.13;;
3865;SDS011;1948;53.250;10.412;2023-07-13T01:08:22;17.30;;;6.10;;
3865;SDS011;1948;53.250;10.412;2023-07-13T01:10:56;10.40;;;5.07;;
3865;SDS011;1948;53.250;10.412;2023-07-13T01:13:27;15.67;;;5.53;;
3865;SDS011;1948;53.250;10.412;2023-07-13T01:15:55;8.20;;;5.27;;
3865;SDS011;1948;53.250;10.412;2023-07-13T01:18:26;8.63;;;5.67;;
3865;SDS011;1948;53.250;10.412;2023-07-13T01:23:28;10.87;;;5.20;;
3865;SDS011;1948;53.250;10.412;2023-07-13T01:25:59;14.73;;;5.83;;
3865;SDS011;1948;53.250;10.412;2023-07-13T01:28:29;9.40;;;5.67;;
3865;SDS011;1948;53.250;10.412;2023-07-13T01:30:57;12.50;;;5.30;;
3865;SDS011;1948;53.250;10.412;2023-07-13T01:33:25;18.50;;;5.90;;
3865;SDS011;1948;53.250;10.412;2023-07-13T01:35:53;22.30;;;5.90;;
3865;SDS011;1948;53.250;10.412;2023-07-13T01:38:23;8.50;;;5.40;;
3865;SDS011;1948;53.250;10.412;2023-07-13T01:40:51;14.10;;;5.77;;
3865;SDS011;1948;53.250;10.412;2023-07-13T01:43:19;13.93;;;6.40;;
3865;SDS011;1948;53.250;10.412;2023-07-13T01:45:47;7.97;;;5.03;;
3865;SDS011;1948;53.250;10.412;2023-07-13T01:48:14;9.00;;;5.30;;
3865;SDS011;1948;53.250;10.412;2023-07-13T01:50:44;16.63;;;5.40;;
3865;SDS011;1948;53.250;10.412;2023-07-13T01:53:11;14.13;;;5.73;;
3865;SDS011;1948;53.250;10.412;2023-07-13T01:55:38;10.57;;;5.17;;
3865;SDS011;1948;53.250;10.412;2023-07-13T01:58:07;10.60;;;6.30;;
3865;SDS011;1948;53.250;10.412;2023-07-13T02:00:34;5.47;;;5.03;;
3865;SDS011;1948;53.250;10.412;2023-07-13T02:03:01;5.90;;;5.30;;
3865;SDS011;1948;53.250;10.412;2023-07-13T02:05:30;14.20;;;6.37;;
3865;SDS011;1948;53.250;10.412;2023-07-13T02:07:57;9.20;;;5.63;;
3865;SDS011;1948;53.250;10.412;2023-07-13T02:10:26;5.90;;;5.33;;
3865;SDS011;1948;53.250;10.412;2023-07-13T02:12:55;6.00;;;4.80;;
3865;SDS011;1948;53.250;10.412;2023-07-13T02:15:23;14.67;;;5.60;;
3865;SDS011;1948;53.250;10.412;2023-07-13T02:17:52;9.90;;;5.87;;
3865;SDS011;1948;53.250;10.412;2023-07-13T02:20:19;12.90;;;5.43;;
3865;SDS011;1948;53.250;10.412;2023-07-13T02:22:46;10.93;;;5.30;;
3865;SDS011;1948;53.250;10.412;2023-07-13T02:25:15;6.37;;;5.30;;
3865;SDS011;1948;53.250;10.412;2023-07-13T02:27:45;5.50;;;5.13;;
3865;SDS011;1948;53.250;10.412;2023-07-13T02:30:11;12.27;;;6.33;;
3865;SDS011;1948;53.250;10.412;2023-07-13T02:32:38;17.20;;;5.70;;
3865;SDS011;1948;53.250;10.412;2023-07-13T02:35:08;11.30;;;5.90;;
3865;SDS011;1948;53.250;10.412;2023-07-13T02:37:35;16.60;;;6.20;;
3865;SDS011;1948;53.250;10.412;2023-07-13T02:40:02;29.43;;;4.97;;
3865;SDS011;1948;53.250;10.412;2023-07-13T02:42:34;9.20;;;5.57;;
3865;SDS011;1948;53.250;10.412;2023-07-13T02:45:05;22.70;;;5.70;;
3865;SDS011;1948;53.250;10.412;2023-07-13T02:47:33;9.60;;;5.67;;
3865;SDS011;1948;53.250;10.412;2023-07-13T02:50:03;11.70;;;5.47;;
3865;SDS011;1948;53.250;10.412;2023-07-13T02:52:31;9.30;;;5.20;;
3865;SDS011;1948;53.250;10.412;2023-07-13T02:55:01;8.97;;;5.90;;
3865;SDS011;1948;53.250;10.412;2023-07-13T02:57:29;9.13;;;4.93;;
3865;SDS011;1948;53.250;10.412;2023-07-13T02:59:59;9.30;;;5.47;;
3865;SDS011;1948;53.250;10.412;2023-07-13T03:02:30;16.47;;;5.50;;
3865;SDS011;1948;53.250;10.412;2023-07-13T03:04:58;8.93;;;4.87;;
3865;SDS011;1948;53.250;10.412;2023-07-13T03:07:25;5.57;;;5.07;;
3865;SDS011;1948;53.250;10.412;2023-07-13T03:09:56;13.37;;;5.53;;
3865;SDS011;1948;53.250;10.412;2023-07-13T03:12:30;14.23;;;5.60;;
3865;SDS011;1948;53.250;10.412;2023-07-13T03:15:00;9.33;;;5.70;;
3865;SDS011;1948;53.250;10.412;2023-07-13T03:17:27;9.03;;;5.37;;
3865;SDS011;1948;53.250;10.412;2023-07-13T03:19:54;8.97;;;6.40;;
3865;SDS011;1948;53.250;10.412;2023-07-13T03:22:25;8.03;;;5.40;;
3865;SDS011;1948;53.250;10.412;2023-07-13T03:24:52;12.23;;;5.93;;
3865;SDS011;1948;53.250;10.412;2023-07-13T03:27:21;9.63;;;5.70;;
3865;SDS011;1948;53.250;10.412;2023-07-13T03:29:51;7.70;;;5.70;;
3865;SDS011;1948;53.250;10.412;2023-07-13T03:32:18;11.50;;;5.70;;
3865;SDS011;1948;53.250;10.412;2023-07-13T03:34:45;8.73;;;5.53;;
3865;SDS011;1948;53.250;10.412;2023-07-13T03:37:14;14.70;;;5.43;;
3865;SDS011;1948;53.250;10.412;2023-07-13T03:39:41;13.00;;;5.97;;
3865;SDS011;1948;53.250;10.412;2023-07-13T03:42:12;5.27;;;4.97;;
3865;SDS011;1948;53.250;10.412;2023-07-13T03:44:39;4.97;;;4.77;;
3865;SDS011;1948;53.250;10.412;2023-07-13T03:47:08;5.10;;;4.83;;
3865;SDS011;1948;53.250;10.412;2023-07-13T03:49:35;8.83;;;6.00;;
3865;SDS011;1948;53.250;10.412;2023-07-13T03:52:04;5.70;;;5.00;;
3865;SDS011;1948;53.250;10.412;2023-07-13T03:54:32;11.70;;;5.07;;
3865;SDS011;1948;53.250;10.412;2023-07-13T03:56:59;11.63;;;6.30;;
3865;SDS011;1948;53.250;10.412;2023-07-13T03:59:31;12.53;;;5.50;;
3865;SDS011;1948;53.250;10.412;2023-07-13T04:02:00;7.23;;;5.37;;
3865;SDS011;1948;53.250;10.412;2023-07-13T04:04:32;7.97;;;5.23;;
3865;SDS011;1948;53.250;10.412;2023-07-13T04:07:07;10.30;;;5.13;;
3865;SDS011;1948;53.250;10.412;2023-07-13T04:09:37;5.17;;;4.97;;
3865;SDS011;1948;53.250;10.412;2023-07-13T04:12:04;13.53;;;5.53;;
3865;SDS011;1948;53.250;10.412;2023-07-13T04:14:37;13.80;;;5.67;;
3865;SDS011;1948;53.250;10.412;2023-07-13T04:17:04;9.63;;;6.03;;
3865;SDS011;1948;53.250;10.412;2023-07-13T04:19:33;10.70;;;5.23;;
3865;SDS011;1948;53.250;10.412;2023-07-13T04:22:00;11.47;;;5.50;;
3865;SDS011;1948;53.250;10.412;2023-07-13T04:24:28;8.50;;;5.13;;
3865;SDS011;1948;53.250;10.412;2023-07-13T04:26:54;16.03;;;5.07;;
3865;SDS011;1948;53.250;10.412;2023-07-13T04:29:25;6.77;;;5.00;;
3865;SDS011;1948;53.250;10.412;2023-07-13T04:31:58;19.77;;;5.23;;
3865;SDS011;1948;53.250;10.412;2023-07-13T04:34:25;11.43;;;5.50;;
3865;SDS011;1948;53.250;10.412;2023-07-13T04:36:52;5.70;;;5.30;;
3865;SDS011;1948;53.250;10.412;2023-07-13T04:39:19;13.03;;;5.13;;
3865;SDS011;1948;53.250;10.412;2023-07-13T04:41:49;4.93;;;4.53;;
3865;SDS011;1948;53.250;10.412;2023-07-13T04:44:19;9.20;;;5.53;;
3865;SDS011;1948;53.250;10.412;2023-07-13T04:46:46;5.17;;;4.87;;
3865;SDS011;1948;53.250;10.412;2023-07-13T04:49:15;8.90;;;5.40;;
3865;SDS011;1948;53.250;10.412;2023-07-13T04:51:42;10.80;;;6.00;;
3865;SDS011;1948;53.250;10.412;2023-07-13T04:54:11;5.60;;;5.30;;
3865;SDS011;1948;53.250;10.412;2023-07-13T04:56:43;13.50;;;4.73;;
3865;SDS011;1948;53.250;10.412;2023-07-13T04:59:13;21.17;;;6.27;;
3865;SDS011;1948;53.250;10.412;2023-07-13T05:01:40;5.10;;;4.90;;
3865;SDS011;1948;53.250;10.412;2023-07-13T05:04:07;6.87;;;5.03;;
3865;SDS011;1948;53.250;10.412;2023-07-13T05:06:36;9.83;;;4.90;;
3865;SDS011;1948;53.250;10.412;2023-07-13T05:09:03;7.80;;;4.57;;
3865;SDS011;1948;53.250;10.412;2023-07-13T05:11:33;8.03;;;5.23;;
3865;SDS011;1948;53.250;10.412;2023-07-13T05:14:05;12.50;;;4.60;;
3865;SDS011;1948;53.250;10.412;2023-07-13T05:16:35;13.53;;;4.60;;
3865;SDS011;1948;53.250;10.412;2023-07-13T05:19:02;9.27;;;4.70;;
3865;SDS011;1948;53.250;10.412;2023-07-13T05:21:31;10.40;;;4.70;;
3865;SDS011;1948;53.250;10.412;2023-07-13T05:23:58;8.93;;;4.87;;
3865;SDS011;1948;53.250;10.412;2023-07-13T05:26:36;4.57;;;3.97;;
3865;SDS011;1948;53.250;10.412;2023-07-13T05:29:03;7.07;;;4.13;;
3865;SDS011;1948;53.250;10.412;2023-07-13T05:31:32;5.67;;;3.93;;
3865;SDS011;1948;53.250;10.412;2023-07-13T05:33:59;7.00;;;3.60;;
3865;SDS011;1948;53.250;10.412;2023-07-13T05:36:26;11.30;;;4.40;;
3865;SDS011;1948;53.250;10.412;2023-07-13T05:38:56;13.13;;;3.87;;
3865;SDS011;1948;53.250;10.412;2023-07-13T05:41:27;15.00;;;4.40;;
3865;SDS011;1948;53.250;10.412;2023-07-13T05:43:54;7.90;;;3.60;;
3865;SDS011;1948;53.250;10.412;2023-07-13T05:46:26;5.30;;;4.07;;
3865;SDS011;1948;53.250;10.412;2023-07-13T05:48:53;12.50;;;3.87;;
3865;SDS011;1948;53.250;10.412;2023-07-13T05:51:20;27.43;;;4.07;;
3865;SDS011;1948;53.250;10.412;2023-07-13T05:53:47;16.27;;;3.97;;
3865;SDS011;1948;53.250;10.412;2023-07-13T05:56:14;22.93;;;4.17;;
3865;SDS011;1948;53.250;10.412;2023-07-13T05:58:41;7.33;;;3.60;;
3865;SDS011;1948;53.250;10.412;2023-07-13T06:01:12;9.57;;;3.60;;
3865;SDS011;1948;53.250;10.412;2023-07-13T06:03:41;18.07;;;3.70;;
3865;SDS011;1948;53.250;10.412;2023-07-13T06:06:10;9.03;;;3.47;;
3865;SDS011;1948;53.250;10.412;2023-07-13T06:08:38;8.07;;;3.50;;
3865;SDS011;1948;53.250;10.412;2023-07-13T06:11:17;13.17;;;4.07;;
3865;SDS011;1948;53.250;10.412;2023-07-13T06:13:48;6.87;;;2.90;;
3865;SDS011;1948;53.250;10.412;2023-07-13T06:16:18;11.90;;;3.60;;
3865;SDS011;1948;53.250;10.412;2023-07-13T06:18:45;12.67;;;3.20;;
3865;SDS011;1948;53.250;10.412;2023-07-13T06:21:15;19.27;;;3.40;;
3865;SDS011;1948;53.250;10.412;2023-07-13T06:23:48;11.20;;;3.80;;
3865;SDS011;1948;53.250;10.412;2023-07-13T06:26:17;17.90;;;4.10;;
3865;SDS011;1948;53.250;10.412;2023-07-13T06:28:46;14.47;;;4.10;;
3865;SDS011;1948;53.250;10.412;2023-07-13T06:31:14;22.93;;;4.27;;
3865;SDS011;1948;53.250;10.412;2023-07-13T06:33:42;13.33;;;3.60;;
3865;SDS011;1948;53.250;10.412;2023-07-13T06:36:11;16.83;;;4.23;;
3865;SDS011;1948;53.250;10.412;2023-07-13T06:38:40;30.77;;;4.20;;
3865;SDS011;1948;53.250;10.412;2023-07-13T06:41:10;10.77;;;3.30;;
3865;SDS011;1948;53.250;10.412;2023-07-13T06:43:40;12.40;;;3.60;;
3865;SDS011;1948;53.250;10.412;2023-07-13T06:46:07;21.70;;;4.53;;
3865;SDS011;1948;53.250;10.412;2023-07-13T06:48:35;8.70;;;2.80;;
3865;SDS011;1948;53.250;10.412;2023-07-13T06:51:04;23.63;;;4.23;;
3865;SDS011;1948;53.250;10.412;2023-07-13T06:53:31;21.37;;;3.57;;
3865;SDS011;1948;53.250;10.412;2023-07-13T06:56:03;32.33;;;4.17;;
3865;SDS011;1948;53.250;10.412;2023-07-13T06:58:30;23.80;;;6.97;;
3865;SDS011;1948;53.250;10.412;2023-07-13T07:00:57;30.93;;;4.10;;
3865;SDS011;1948;53.250;10.412;2023-07-13T07:03:24;13.13;;;4.00;;
3865;SDS011;1948;53.250;10.412;2023-07-13T07:05:59;21.10;;;4.30;;
3865;SDS011;1948;53.250;10.412;2023-07-13T07:08:32;18.57;;;4.00;;
3865;SDS011;1948;53.250;10.412;2023-07-13T07:11:01;19.00;;;3.37;;
3865;SDS011;1948;53.250;10.412;2023-07-13T07:13:28;15.33;;;3.40;;
3865;SDS011;1948;53.250;10.412;2023-07-13T07:15:56;34.30;;;4.17;;
3865;SDS011;1948;53.250;10.412;2023-07-13T07:18:23;13.47;;;2.90;;
3865;SDS011;1948;53.250;10.412;2023-07-13T07:20:52;23.77;;;3.93;;
3865;SDS011;1948;53.250;10.412;2023-07-13T07:23:19;14.73;;;3.27;;
3865;SDS011;1948;53.250;10.412;2023-07-13T07:25:49;27.00;;;3.60;;
3865;SDS011;1948;53.250;10.412;2023-07-13T07:28:18;10.97;;;3.20;;
3865;SDS011;1948;53.250;10.412;2023-07-13T07:30:48;7.77;;;2.90;;
3865;SDS011;1948;53.250;10.412;2023-07-13T07:33:41;11.97;;;3.40;;
3865;SDS011;1948;53.250;10.412;2023-07-13T07:36:09;22.67;;;2.83;;
3865;SDS011;1948;53.250;10.412;2023-07-13T07:38:42;20.47;;;3.23;;
3865;SDS011;1948;53.250;10.412;2023-07-13T07:41:12;15.10;;;3.20;;
3865;SDS011;1948;53.250;10.412;2023-07-13T07:43:44;12.43;;;3.10;;
3865;SDS011;1948;53.250;10.412;2023-07-13T07:46:13;14.30;;;4.00;;
3865;SDS011;1948;53.250;10.412;2023-07-13T07:48:41;13.23;;;2.97;;
3865;SDS011;1948;53.250;10.412;2023-07-13T07:51:10;19.97;;;3.70;;
3865;SDS011;1948;53.250;10.412;2023-07-13T07:53:39;15.53;;;2.97;;
3865;SDS011;1948;53.250;10.412;2023-07-13T07:56:06;15.33;;;3.40;;
3865;SDS011;1948;53.250;10.412;2023-07-13T07:58:39;23.10;;;4.10;;
3865;SDS011;1948;53.250;10.412;2023-07-13T08:01:09;17.67;;;3.67;;
3865;SDS011;1948;53.250;10.412;2023-07-13T08:03:39;13.00;;;3.13;;
3865;SDS011;1948;53.250;10.412;2023-07-13T08:06:09;19.80;;;3.47;;
3865;SDS011;1948;53.250;10.412;2023-07-13T08:08:56;8.07;;;3.10;;
3865;SDS011;1948;53.250;10.412;2023-07-13T08:11:26;13.90;;;3.43;;
3865;SDS011;1948;53.250;10.412;2023-07-13T08:13:56;9.73;;;3.03;;
3865;SDS011;1948;53.250;10.412;2023-07-13T08:16:23;16.37;;;3.40;;
3865;SDS011;1948;53.250;10.412;2023-07-13T08:18:50;8.43;;;2.90;;
3865;SDS011;1948;53.250;10.412;2023-07-13T08:21:20;17.10;;;3.37;;
3865;SDS011;1948;53.250;10.412;2023-07-13T08:23:48;18.77;;;3.20;;
3865;SDS011;1948;53.250;10.412;2023-07-13T08:26:15;14.97;;;3.40;;
3865;SDS011;1948;53.250;10.412;2023-07-13T08:28:42;8.20;;;3.40;;
3865;SDS011;1948;53.250;10.412;2023-07-13T08:31:09;10.40;;;2.90;;
3865;SDS011;1948;53.250;10.412;2023-07-13T08:33:37;8.97;;;3.30;;
3865;SDS011;1948;53.250;10.412;2023-07-13T08:36:07;19.60;;;3.10;;
3865;SDS011;1948;53.250;10.412;2023-07-13T08:38:34;36.13;;;3.57;;
3865;SDS011;1948;53.250;10.412;2023-07-13T08:41:21;10.50;;;2.90;;
3865;SDS011;1948;53.250;10.412;2023-07-13T08:43:57;11.97;;;3.43;;
3865;SDS011;1948;53.250;10.412;2023-07-13T08:49:18;15.03;;;2.87;;
3865;SDS011;1948;53.250;10.412;2023-07-13T08:51:53;8.63;;;2.60;;
3865;SDS011;1948;53.250;10.412;2023-07-13T08:54:30;14.50;;;3.37;;
3865;SDS011;1948;53.250;10.412;2023-07-13T08:57:14;7.87;;;2.47;;
3865;SDS011;1948;53.250;10.412;2023-07-13T08:59:44;11.43;;;3.27;;
3865;SDS011;1948;53.250;10.412;2023-07-13T09:20:35;5.03;;;3.07;;
3865;SDS011;1948;53.250;10.412;2023-07-13T09:23:09;8.67;;;2.80;;
3865;SDS011;1948;53.250;10.412;2023-07-13T09:25:41;18.87;;;2.63;;
3865;SDS011;1948;53.250;10.412;2023-07-13T09:33:48;9.67;;;2.80;;
3865;SDS011;1948;53.250;10.412;2023-07-13T09:39:02;11.30;;;2.17;;
3865;SDS011;1948;53.250;10.412;2023-07-13T09:41:41;10.73;;;2.80;;
3865;SDS011;1948;53.250;10.412;2023-07-13T09:47:23;5.27;;;2.20;;
3865;SDS011;1948;53.250;10.412;2023-07-13T09:49:59;7.50;;;2.57;;
3865;SDS011;1948;53.250;10.412;2023-07-13T09:52:40;7.93;;;2.10;;
3865;SDS011;1948;53.250;10.412;2023-07-13T09:57:53;21.43;;;2.60;;
3865;SDS011;1948;53.250;10.412;2023-07-13T10:00:21;14.10;;;2.80;;
3865;SDS011;1948;53.250;10.412;2023-07-13T10:02:58;3.87;;;2.20;;
3865;SDS011;1948;53.250;10.412;2023-07-13T10:05:51;5.30;;;2.47;;
3865;SDS011;1948;53.250;10.412;2023-07-13T10:08:28;5.07;;;1.90;;
3865;SDS011;1948;53.250;10.412;2023-07-13T10:11:01;7.80;;;2.37;;
3865;SDS011;1948;53.250;10.412;2023-07-13T10:13:42;6.57;;;2.57;;
3865;SDS011;1948;53.250;10.412;2023-07-13T10:16:26;12.67;;;2.63;;
3865;SDS011;1948;53.250;10.412;2023-07-13T10:27:37;3.43;;;2.30;;
3865;SDS011;1948;53.250;10.412;2023-07-13T10:29:51;9.10;;;2.13;;
3865;SDS011;1948;53.250;10.412;2023-07-13T10:32:26;6.47;;;2.33;;
3865;SDS011;1948;53.250;10.412;2023-07-13T10:34:55;5.23;;;2.40;;
3865;SDS011;1948;53.250;10.412;2023-07-13T10:37:28;4.20;;;2.00;;
3865;SDS011;1948;53.250;10.412;2023-07-13T10:40:11;4.67;;;2.00;;
3865;SDS011;1948;53.250;10.412;2023-07-13T10:42:52;13.17;;;2.43;;
3865;SDS011;1948;53.250;10.412;2023-07-13T10:45:24;3.77;;;2.80;;
3865;SDS011;1948;53.250;10.412;2023-07-13T10:47:54;5.80;;;2.43;;
3865;SDS011;1948;53.250;10.412;2023-07-13T10:50:25;3.57;;;2.10;;
3865;SDS011;1948;53.250;10.412;2023-07-13T10:53:01;3.33;;;2.00;;
3865;SDS011;1948;53.250;10.412;2023-07-13T11:03:20;3.63;;;2.27;;
3865;SDS011;1948;53.250;10.412;2023-07-13T11:06:56;3.37;;;2.30;;
3865;SDS011;1948;53.250;10.412;2023-07-13T11:09:31;4.23;;;2.00;;
3865;SDS011;1948;53.250;10.412;2023-07-13T11:12:10;9.27;;;3.13;;
3865;SDS011;1948;53.250;10.412;2023-07-13T11:18:24;11.63;;;2.37;;
3865;SDS011;1948;53.250;10.412;2023-07-13T11:20:51;6.00;;;2.63;;
3865;SDS011;1948;53.250;10.412;2023-07-13T11:23:20;6.70;;;2.20;;
3865;SDS011;1948;53.250;10.412;2023-07-13T11:25:54;14.10;;;2.17;;
3865;SDS011;1948;53.250;10.412;2023-07-13T11:28:24;3.43;;;1.83;;
3865;SDS011;1948;53.250;10.412;2023-07-13T11:31:00;7.33;;;2.30;;
3865;SDS011;1948;53.250;10.412;2023-07-13T11:36:06;2.30;;;1.73;;
3865;SDS011;1948;53.250;10.412;2023-07-13T11:38:42;1.83;;;1.73;;
3865;SDS011;1948;53.250;10.412;2023-07-13T11:41:28;8.23;;;2.37;;
3865;SDS011;1948;53.250;10.412;2023-07-13T11:44:33;6.33;;;2.60;;
3865;SDS011;1948;53.250;10.412;2023-07-13T11:46:57;2.03;;;1.80;;
3865;SDS011;1948;53.250;10.412;2023-07-13T11:49:31;6.90;;;2.93;;
3865;SDS011;1948;53.250;10.412;2023-07-13T11:52:12;21.17;;;2.70;;
3865;SDS011;1948;53.250;10.412;2023-07-13T11:54:52;7.90;;;2.43;;
3865;SDS011;1948;53.250;10.412;2023-07-13T12:00:13;3.17;;;2.17;;
3865;SDS011;1948;53.250;10.412;2023-07-13T12:02:53;4.13;;;2.27;;
3865;SDS011;1948;53.250;10.412;2023-07-13T12:05:25;2.63;;;1.97;;
3865;SDS011;1948;53.250;10.412;2023-07-13T12:07:57;2.70;;;2.30;;
3865;SDS011;1948;53.250;10.412;2023-07-13T12:10:29;9.67;;;2.40;;
3865;SDS011;1948;53.250;10.412;2023-07-13T12:13:01;2.50;;;2.40;;
3865;SDS011;1948;53.250;10.412;2023-07-13T12:15:35;8.23;;;2.40;;
3865;SDS011;1948;53.250;10.412;2023-07-13T12:18:21;6.13;;;2.20;;
3865;SDS011;1948;53.250;10.412;2023-07-13T12:20:50;5.07;;;2.33;;
3865;SDS011;1948;53.250;10.412;2023-07-13T12:23:22;7.17;;;2.47;;
3865;SDS011;1948;53.250;10.412;2023-07-13T12:25:52;2.03;;;1.93;;
3865;SDS011;1948;53.250;10.412;2023-07-13T12:28:21;3.70;;;2.63;;
3865;SDS011;1948;53.250;10.412;2023-07-13T12:30:59;3.97;;;2.47;;
3865;SDS011;1948;53.250;10.412;2023-07-13T12:33:34;6.73;;;2.23;;
3865;SDS011;1948;53.250;10.412;2023-07-13T12:36:10;6.27;;;2.60;;
3865;SDS011;1948;53.250;10.412;2023-07-13T12:38:38;10.63;;;2.70;;
3865;SDS011;1948;53.250;10.412;2023-07-13T12:41:07;5.30;;;2.43;;
3865;SDS011;1948;53.250;10.412;2023-07-13T12:43:36;13.90;;;3.73;;
3865;SDS011;1948;53.250;10.412;2023-07-13T12:46:15;16.07;;;3.70;;
3865;SDS011;1948;53.250;10.412;2023-07-13T12:48:53;3.40;;;3.07;;
3865;SDS011;1948;53.250;10.412;2023-07-13T12:51:45;4.87;;;2.60;;
3865;SDS011;1948;53.250;10.412;2023-07-13T12:54:21;3.33;;;3.13;;
3865;SDS011;1948;53.250;10.412;2023-07-13T12:56:49;4.63;;;2.90;;
3865;SDS011;1948;53.250;10.412;2023-07-13T12:59:20;8.53;;;2.27;;
3865;SDS011;1948;53.250;10.412;2023-07-13T13:01:49;7.30;;;2.73;;
3865;SDS011;1948;53.250;10.412;2023-07-13T13:04:19;33.70;;;3.80;;
3865;SDS011;1948;53.250;10.412;2023-07-13T13:06:48;17.73;;;4.10;;
3865;SDS011;1948;53.250;10.412;2023-07-13T13:09:27;5.57;;;3.17;;
3865;SDS011;1948;53.250;10.412;2023-07-13T13:11:54;10.07;;;2.90;;
3865;SDS011;1948;53.250;10.412;2023-07-13T13:14:23;9.43;;;3.13;;
3865;SDS011;1948;53.250;10.412;2023-07-13T13:16:53;3.63;;;2.33;;
3865;SDS011;1948;53.250;10.412;2023-07-13T13:19:24;5.20;;;3.00;;
3865;SDS011;1948;53.250;10.412;2023-07-13T13:21:55;6.73;;;3.00;;
3865;SDS011;1948;53.250;10.412;2023-07-13T13:24:26;11.73;;;3.77;;
3865;SDS011;1948;53.250;10.412;2023-07-13T13:26:55;13.03;;;3.50;;
3865;SDS011;1948;53.250;10.412;2023-07-13T13:29:28;15.60;;;4.60;;
3865;SDS011;1948;53.250;10.412;2023-07-13T13:31:58;3.27;;;3.07;;
3865;SDS011;1948;53.250;10.412;2023-07-13T13:34:25;5.77;;;3.57;;
3865;SDS011;1948;53.250;10.412;2023-07-13T13:36:55;8.30;;;3.73;;
3865;SDS011;1948;53.250;10.412;2023-07-13T13:39:35;7.00;;;3.67;;
3865;SDS011;1948;53.250;10.412;2023-07-13T13:42:23;4.63;;;4.17;;
3865;SDS011;1948;53.250;10.412;2023-07-13T13:44:52;8.97;;;4.20;;
3865;SDS011;1948;53.250;10.412;2023-07-13T13:49:56;7.67;;;3.47;;
3865;SDS011;1948;53.250;10.412;2023-07-13T13:52:24;5.27;;;3.30;;
3865;SDS011;1948;53.250;10.412;2023-07-13T13:54:51;8.50;;;4.00;;
3865;SDS011;1948;53.250;10.412;2023-07-13T13:57:23;3.67;;;3.37;;
3865;SDS011;1948;53.250;10.412;2023-07-13T13:59:52;7.80;;;3.50;;
3865;SDS011;1948;53.250;10.412;2023-07-13T14:02:22;6.80;;;4.33;;
3865;SDS011;1948;53.250;10.412;2023-07-13T14:04:57;10.20;;;3.50;;
3865;SDS011;1948;53.250;10.412;2023-07-13T14:07:33;9.53;;;3.07;;
3865;SDS011;1948;53.250;10.412;2023-07-13T14:10:08;5.03;;;4.37;;
3865;SDS011;1948;53.250;10.412;2023-07-13T14:12:46;8.70;;;3.23;;
3865;SDS011;1948;53.250;10.412;2023-07-13T14:15:28;3.40;;;3.10;;
3865;SDS011;1948;53.250;10.412;2023-07-13T14:17:59;4.30;;;3.90;;
3865;SDS011;1948;53.250;10.412;2023-07-13T14:20:26;3.97;;;3.50;;
3865;SDS011;1948;53.250;10.412;2023-07-13T14:22:53;5.43;;;4.60;;
3865;SDS011;1948;53.250;10.412;2023-07-13T14:25:21;5.30;;;3.30;;
3865;SDS011;1948;53.250;10.412;2023-07-13T14:27:49;3.43;;;3.33;;
3865;SDS011;1948;53.250;10.412;2023-07-13T14:30:25;4.37;;;3.40;;
3865;SDS011;1948;53.250;10.412;2023-07-13T14:32:54;4.43;;;3.57;;
3865;SDS011;1948;53.250;10.412;2023-07-13T14:35:21;6.47;;;3.33;;
3865;SDS011;1948;53.250;10.412;2023-07-13T14:37:51;5.70;;;4.60;;
3865;SDS011;1948;53.250;10.412;2023-07-13T14:40:29;5.13;;;3.07;;
3865;SDS011;1948;53.250;10.412;2023-07-13T14:42:58;5.43;;;3.00;;
3865;SDS011;1948;53.250;10.412;2023-07-13T14:45:25;5.67;;;4.00;;
3865;SDS011;1948;53.250;10.412;2023-07-13T14:47:52;12.27;;;4.23;;
3865;SDS011;1948;53.250;10.412;2023-07-13T14:50:21;3.77;;;3.47;;
3865;SDS011;1948;53.250;10.412;2023-07-13T14:52:55;4.77;;;3.67;;
3865;SDS011;1948;53.250;10.412;2023-07-13T14:55:21;3.20;;;3.10;;
3865;SDS011;1948;53.250;10.412;2023-07-13T14:57:52;4.13;;;3.40;;
3865;SDS011;1948;53.250;10.412;2023-07-13T15:00:23;4.57;;;4.17;;
3865;SDS011;1948;53.250;10.412;2023-07-13T15:02:54;10.33;;;4.87;;
3865;SDS011;1948;53.250;10.412;2023-07-13T15:05:25;4.73;;;3.20;;
3865;SDS011;1948;53.250;10.412;2023-07-13T15:08:00;13.50;;;3.50;;
3865;SDS011;1948;53.250;10.412;2023-07-13T15:10:31;4.10;;;3.30;;
3865;SDS011;1948;53.250;10.412;2023-07-13T15:13:00;3.37;;;2.97;;
3865;SDS011;1948;53.250;10.412;2023-07-13T15:15:50;5.80;;;3.10;;
3865;SDS011;1948;53.250;10.412;2023-07-13T15:18:19;6.37;;;3.27;;
3865;SDS011;1948;53.250;10.412;2023-07-13T15:20:49;7.30;;;4.50;;
3865;SDS011;1948;53.250;10.412;2023-07-13T15:23:24;3.23;;;3.10;;
3865;SDS011;1948;53.250;10.412;2023-07-13T15:25:52;3.80;;;2.60;;
3865;SDS011;1948;53.250;10.412;2023-07-13T15:28:21;3.87;;;3.07;;
3865;SDS011;1948;53.250;10.412;2023-07-13T15:30:50;2.57;;;2.37;;
3865;SDS011;1948;53.250;10.412;2023-07-13T15:33:35;2.57;;;2.47;;
3865;SDS011;1948;53.250;10.412;2023-07-13T15:36:03;2.10;;;1.90;;
3865;SDS011;1948;53.250;10.412;2023-07-13T15:38:31;3.20;;;3.10;;
3865;SDS011;1948;53.250;10.412;2023-07-13T15:41:00;2.53;;;2.30;;
3865;SDS011;1948;53.250;10.412;2023-07-13T15:43:28;3.20;;;2.80;;
3865;SDS011;1948;53.250;10.412;2023-07-13T15:45:59;4.10;;;2.10;;
3865;SDS011;1948;53.250;10.412;2023-07-13T15:48:26;2.90;;;2.70;;
3865;SDS011;1948;53.250;10.412;2023-07-13T15:51:00;3.40;;;3.10;;
3865;SDS011;1948;53.250;10.412;2023-07-13T15:53:30;4.40;;;2.73;;
3865;SDS011;1948;53.250;10.412;2023-07-13T15:55:59;2.33;;;2.33;;
3865;SDS011;1948;53.250;10.412;2023-07-13T15:58:28;2.30;;;2.30;;
3865;SDS011;1948;53.250;10.412;2023-07-13T16:00:57;2.27;;;2.17;;
3865;SDS011;1948;53.250;10.412;2023-07-13T16:03:27;3.27;;;2.20;;
3865;SDS011;1948;53.250;10.412;2023-07-13T16:05:54;2.57;;;2.40;;
3865;SDS011;1948;53.250;10.412;2023-07-13T16:08:27;2.83;;;2.10;;
3865;SDS011;1948;53.250;10.412;2023-07-13T16:11:00;9.63;;;2.60;;
3865;SDS011;1948;53.250;10.412;2023-07-13T16:13:30;2.60;;;2.40;;
3865;SDS011;1948;53.250;10.412;2023-07-13T16:15:57;1.90;;;1.90;;
3865;SDS011;1948;53.250;10.412;2023-07-13T16:18:27;9.07;;;2.00;;
3865;SDS011;1948;53.250;10.412;2023-07-13T16:20:56;11.10;;;2.30;;
3865;SDS011;1948;53.250;10.412;2023-07-13T16:23:25;3.27;;;2.20;;
3865;SDS011;1948;53.250;10.412;2023-07-13T16:29:20;4.70;;;2.47;;
3865;SDS011;1948;53.250;10.412;2023-07-13T16:34:26;2.50;;;2.30;;